DAUK

Touggourt Sidi Madhi Airport

Touggourt, Algeria
METAR DAUK 140111Z 30020KT 4000 DRSA NSC 15/00 Q1010
Observed Flight Rules
Dec-14 @ 01:11 UTC (7 hours ago) Instrument Flight Rules
Wind Visibility Clouds Conditions
300° at 20 knots 4,007 meters
  • Clear skies
  • Low drifting
  • Sand
Temperatures Readings
Current 15°C / 59°F
Dewpoint 0°C / 32°F
Humidity 36%
Altimeter 29.82" Hg
Pressure 1010 hPa
Elevation 85
METAR DAUK 140111Z 30020KT 4000 DRSA NSC 15/00 Q1010
Observed Flight Rules
Dec-14 @ 01:11 UTC
(7 hours ago)
IFR
Wind Visibility
300° at 20 knots 4,007 meters
Clouds
  • Clear skies
Conditions
  • Low drifting
  • Sand
Temperature Dewpoint
15°C / 59°F 0°C / 32°F
Humidity Altimeter Pressure
36% 29.82" Hg 1010 hPa